createdAt,value
2022-12-28T00:00:03.636Z,27.17
2022-12-28T00:02:40.980Z,27.93
2022-12-28T00:05:11.337Z,25.17
2022-12-28T00:07:39.812Z,23.90
2022-12-28T00:10:08.887Z,23.80
2022-12-28T00:12:37.457Z,21.93
2022-12-28T00:15:06.786Z,19.63
2022-12-28T00:17:35.388Z,19.00
2022-12-28T00:20:03.977Z,18.67
2022-12-28T00:22:33.895Z,18.43
2022-12-28T00:25:02.418Z,18.93
2022-12-28T00:27:32.125Z,17.07
2022-12-28T00:30:00.928Z,16.70
2022-12-28T00:32:30.020Z,17.00
2022-12-28T00:34:58.599Z,15.23
2022-12-28T00:37:28.156Z,14.43
2022-12-28T00:39:58.926Z,12.30
2022-12-28T00:42:27.424Z,13.07
2022-12-28T00:44:55.947Z,13.97
2022-12-28T00:47:24.479Z,12.87
2022-12-28T00:49:53.007Z,13.30
2022-12-28T00:52:21.585Z,11.67
2022-12-28T00:54:50.066Z,11.43
2022-12-28T00:57:20.020Z,12.03
2022-12-28T00:59:48.569Z,11.40
2022-12-28T01:02:17.121Z,11.93
2022-12-28T01:04:45.717Z,10.30
2022-12-28T01:07:16.666Z,10.40
2022-12-28T01:09:45.176Z,10.87
2022-12-28T01:12:13.646Z,10.47
2022-12-28T01:14:45.393Z,10.53
2022-12-28T01:17:13.936Z,12.70
2022-12-28T01:19:42.526Z,11.03
2022-12-28T01:22:12.310Z,10.70
2022-12-28T01:24:40.867Z,10.30
2022-12-28T01:27:09.351Z,8.93
2022-12-28T01:29:38.686Z,8.87
2022-12-28T01:32:08.908Z,10.13
2022-12-28T01:34:37.487Z,9.17
2022-12-28T01:37:06.160Z,10.57
2022-12-28T01:39:36.617Z,8.30
2022-12-28T01:42:05.253Z,8.33
2022-12-28T01:44:43.722Z,8.60
2022-12-28T01:47:23.315Z,7.33
2022-12-28T01:49:58.375Z,7.30
2022-12-28T01:52:33.068Z,7.73
2022-12-28T01:55:06.337Z,7.20
2022-12-28T01:57:40.756Z,8.00
2022-12-28T02:00:12.784Z,7.63
2022-12-28T02:02:46.679Z,7.73
2022-12-28T02:05:16.211Z,8.57
2022-12-28T02:07:52.854Z,9.60
2022-12-28T02:10:41.773Z,12.60
2022-12-28T02:13:11.593Z,9.87
2022-12-28T02:15:40.244Z,8.17
2022-12-28T02:18:11.193Z,8.83
2022-12-28T02:20:47.354Z,9.07
2022-12-28T02:23:38.443Z,8.63
2022-12-28T02:26:29.356Z,8.43
2022-12-28T02:29:37.163Z,6.43
2022-12-28T02:32:19.703Z,6.30
2022-12-28T02:34:55.992Z,6.80
2022-12-28T02:37:28.654Z,6.27
2022-12-28T02:40:02.897Z,6.50
2022-12-28T02:42:32.154Z,8.33
2022-12-28T02:45:19.213Z,5.20
2022-12-28T02:48:07.068Z,5.63
2022-12-28T02:50:44.119Z,6.37
2022-12-28T02:53:34.079Z,5.90
2022-12-28T02:56:14.973Z,5.60
2022-12-28T02:59:10.387Z,6.83
2022-12-28T03:01:58.715Z,5.37
2022-12-28T03:04:36.703Z,5.53
2022-12-28T03:07:29.584Z,5.30
2022-12-28T03:10:09.834Z,5.93
2022-12-28T03:12:44.836Z,5.83
2022-12-28T03:15:29.621Z,5.60
2022-12-28T03:18:23.609Z,5.47
2022-12-28T03:21:13.315Z,5.00
2022-12-28T03:24:01.486Z,4.97
2022-12-28T03:26:52.079Z,4.63
2022-12-28T03:29:41.675Z,5.20
2022-12-28T03:32:11.254Z,5.00
2022-12-28T03:34:42.949Z,5.77
2022-12-28T03:37:17.482Z,4.60
2022-12-28T03:39:51.960Z,5.40
2022-12-28T03:42:45.963Z,4.00
2022-12-28T03:45:45.384Z,4.40
2022-12-28T03:48:11.688Z,4.83
2022-12-28T03:50:45.083Z,6.80
2022-12-28T03:53:18.776Z,4.57
2022-12-28T03:55:48.285Z,3.97
2022-12-28T03:58:20.845Z,4.30
2022-12-28T04:00:50.813Z,4.40
2022-12-28T04:03:21.953Z,4.50
2022-12-28T04:05:52.019Z,4.43
2022-12-28T04:08:20.956Z,4.53
2022-12-28T04:10:50.939Z,4.00
2022-12-28T04:13:19.585Z,4.27
2022-12-28T04:16:03.294Z,5.83
2022-12-28T04:18:35.437Z,4.67
2022-12-28T04:21:06.064Z,4.80
2022-12-28T04:23:35.003Z,4.73
2022-12-28T04:26:18.052Z,5.00
2022-12-28T04:28:48.395Z,6.80
2022-12-28T04:31:40.462Z,5.10
2022-12-28T04:34:13.530Z,6.70
2022-12-28T04:36:49.738Z,4.97
2022-12-28T04:39:21.636Z,4.70
2022-12-28T04:41:50.222Z,4.67
2022-12-28T04:44:18.765Z,4.60
2022-12-28T04:46:47.657Z,4.43
2022-12-28T04:49:16.167Z,5.23
2022-12-28T04:51:44.692Z,5.23
2022-12-28T04:54:15.879Z,4.70
2022-12-28T04:56:44.407Z,4.40
2022-12-28T04:59:13.073Z,4.73
2022-12-28T05:01:41.758Z,4.20
2022-12-28T05:04:10.468Z,4.57
2022-12-28T05:06:38.929Z,5.03
2022-12-28T05:09:07.547Z,4.27
2022-12-28T05:11:37.606Z,4.37
2022-12-28T05:14:06.109Z,3.80
2022-12-28T05:16:34.959Z,4.43
2022-12-28T05:19:03.848Z,4.73
2022-12-28T05:21:32.452Z,5.67
2022-12-28T05:24:01.275Z,4.53
2022-12-28T05:26:30.710Z,4.20
2022-12-28T05:29:00.878Z,4.17
2022-12-28T05:31:29.573Z,4.73
2022-12-28T05:33:58.288Z,5.30
2022-12-28T05:36:28.053Z,5.10
2022-12-28T05:38:57.740Z,4.37
2022-12-28T05:41:28.362Z,7.60
2022-12-28T05:43:57.624Z,4.33
2022-12-28T05:46:30.353Z,4.70
2022-12-28T05:49:00.071Z,4.57
2022-12-28T05:51:30.876Z,3.47
2022-12-28T05:54:01.589Z,3.77
2022-12-28T05:56:32.497Z,4.07
2022-12-28T05:59:02.456Z,3.87
2022-12-28T06:01:34.223Z,3.93
2022-12-28T06:04:04.762Z,4.10
2022-12-28T06:06:34.859Z,3.90
2022-12-28T06:09:04.319Z,4.70
2022-12-28T06:11:33.186Z,3.97
2022-12-28T06:14:03.808Z,3.90
2022-12-28T06:16:35.668Z,4.80
2022-12-28T06:19:06.516Z,8.07
2022-12-28T06:21:36.746Z,9.73
2022-12-28T06:24:07.139Z,7.07
2022-12-28T06:26:37.657Z,6.47
2022-12-28T06:29:06.416Z,5.17
2022-12-28T06:31:38.803Z,8.43
2022-12-28T06:34:09.250Z,13.80
2022-12-28T06:36:39.740Z,19.37
2022-12-28T06:39:10.277Z,10.20
2022-12-28T06:41:39.694Z,7.30
2022-12-28T06:44:09.014Z,6.50
2022-12-28T06:46:39.296Z,4.40
2022-12-28T06:49:08.135Z,4.80
2022-12-28T06:51:40.698Z,5.17
2022-12-28T06:54:10.117Z,4.47
2022-12-28T06:56:39.236Z,4.40
2022-12-28T06:59:08.213Z,8.03
2022-12-28T07:01:40.212Z,6.10
2022-12-28T07:04:10.749Z,5.27
2022-12-28T07:06:41.558Z,4.87
2022-12-28T07:09:13.606Z,9.53
2022-12-28T07:11:42.402Z,5.13
2022-12-28T07:14:13.330Z,4.87
2022-12-28T07:16:44.424Z,4.20
2022-12-28T07:19:13.010Z,5.27
2022-12-28T07:21:42.237Z,4.70
2022-12-28T07:24:11.236Z,5.60
2022-12-28T07:26:40.058Z,5.40
2022-12-28T07:29:09.616Z,5.30
2022-12-28T07:31:45.126Z,5.30
2022-12-28T07:34:16.290Z,6.57
2022-12-28T07:36:45.244Z,6.87
2022-12-28T07:39:13.785Z,7.60
2022-12-28T07:41:42.467Z,9.17
2022-12-28T07:44:11.543Z,8.77
2022-12-28T07:46:40.205Z,10.60
2022-12-28T07:49:09.056Z,10.17
2022-12-28T07:51:39.915Z,11.23
2022-12-28T07:54:08.748Z,18.97
2022-12-28T07:59:06.370Z,8.73
2022-12-28T08:01:37.338Z,10.83
2022-12-28T08:04:08.219Z,11.60
2022-12-28T08:06:40.413Z,7.70
2022-12-28T08:09:10.830Z,8.30
2022-12-28T08:11:42.534Z,9.30
2022-12-28T08:14:13.763Z,9.77
2022-12-28T08:16:44.523Z,9.00
2022-12-28T08:19:13.900Z,10.47
2022-12-28T08:21:45.655Z,16.30
2022-12-28T08:24:16.598Z,12.53
2022-12-28T08:26:45.983Z,8.27
2022-12-28T08:29:17.139Z,10.63
2022-12-28T08:31:47.332Z,8.10
2022-12-28T08:34:17.934Z,7.60
2022-12-28T08:36:48.075Z,7.47
2022-12-28T08:39:16.625Z,10.77
2022-12-28T08:41:45.349Z,6.90
2022-12-28T08:44:13.924Z,9.83
2022-12-28T08:46:42.505Z,11.90
2022-12-28T08:49:11.152Z,12.13
2022-12-28T08:51:41.798Z,7.27
2022-12-28T08:54:13.786Z,11.27
2022-12-28T08:56:44.435Z,9.30
2022-12-28T08:59:16.340Z,12.67
2022-12-28T09:01:45.833Z,10.57
2022-12-28T09:04:17.991Z,12.83
2022-12-28T09:06:46.585Z,12.20
2022-12-28T09:09:18.010Z,12.20
2022-12-28T09:11:46.595Z,10.03
2022-12-28T09:14:22.770Z,10.97
2022-12-28T09:16:53.141Z,9.47
2022-12-28T09:19:21.995Z,9.23
2022-12-28T09:21:52.703Z,9.27
2022-12-28T09:24:23.607Z,9.83
2022-12-28T09:26:54.675Z,9.60
2022-12-28T09:29:23.511Z,8.83
2022-12-28T09:31:51.998Z,9.57
2022-12-28T09:34:35.394Z,12.57
2022-12-28T09:37:05.364Z,8.53
2022-12-28T09:39:35.567Z,11.13
2022-12-28T09:42:07.609Z,14.50
2022-12-28T09:44:58.307Z,6.10
2022-12-28T09:47:33.465Z,5.40
2022-12-28T09:50:28.610Z,6.47
2022-12-28T09:53:17.585Z,5.93
2022-12-28T09:55:56.197Z,5.33
2022-12-28T09:58:25.079Z,5.33
2022-12-28T10:01:00.588Z,5.77
2022-12-28T10:03:37.614Z,5.17
2022-12-28T10:06:12.214Z,5.10
2022-12-28T10:08:44.264Z,4.47
2022-12-28T10:11:18.722Z,3.27
2022-12-28T10:13:56.768Z,3.93
2022-12-28T10:16:26.871Z,3.83
2022-12-28T10:18:56.370Z,3.27
2022-12-28T10:21:32.353Z,3.30
2022-12-28T10:26:53.038Z,5.67
2022-12-28T10:29:23.355Z,6.63
2022-12-28T10:32:00.946Z,9.27
2022-12-28T10:34:34.577Z,6.20
2022-12-28T10:40:00.972Z,8.83
2022-12-28T10:42:34.479Z,4.60
2022-12-28T10:45:07.122Z,3.27
2022-12-28T10:47:42.223Z,6.07
2022-12-28T10:50:42.013Z,6.60
2022-12-28T10:53:25.807Z,4.83
2022-12-28T10:56:04.775Z,3.77
2022-12-28T10:58:35.303Z,3.10
2022-12-28T11:01:06.930Z,3.40
2022-12-28T11:03:20.495Z,5.17
2022-12-28T11:03:38.784Z,3.90
2022-12-28T11:06:22.800Z,2.70
2022-12-28T11:09:16.975Z,3.87
2022-12-28T11:11:47.211Z,2.87
2022-12-28T11:14:27.451Z,5.03
2022-12-28T11:16:55.951Z,3.50
2022-12-28T11:19:26.104Z,6.17
2022-12-28T11:21:54.952Z,3.60
2022-12-28T11:24:28.193Z,7.07
2022-12-28T11:26:56.702Z,7.10
2022-12-28T11:29:26.695Z,9.50
2022-12-28T11:32:02.624Z,14.83
2022-12-28T11:34:32.516Z,8.40
2022-12-28T11:37:01.294Z,7.67
2022-12-28T11:39:45.337Z,5.77
2022-12-28T11:42:41.800Z,4.53
2022-12-28T11:45:16.130Z,4.70
2022-12-28T11:47:45.850Z,4.67
2022-12-28T11:50:52.192Z,5.57
2022-12-28T11:53:45.524Z,6.07
2022-12-28T11:56:14.909Z,4.85
2022-12-28T11:59:05.835Z,4.22
2022-12-28T12:01:53.554Z,6.88
2022-12-28T12:04:41.049Z,6.68
2022-12-28T12:07:27.459Z,5.75
2022-12-28T12:10:30.833Z,5.37
2022-12-28T12:13:00.065Z,5.53
2022-12-28T12:15:41.422Z,4.70
2022-12-28T12:18:21.113Z,4.63
2022-12-28T12:20:56.872Z,7.20
2022-12-28T12:23:40.520Z,5.07
2022-12-28T12:26:22.333Z,6.43
2022-12-28T12:28:54.170Z,6.07
2022-12-28T12:31:29.882Z,6.85
2022-12-28T12:34:07.280Z,4.13
2022-12-28T12:37:09.614Z,4.25
2022-12-28T12:39:52.867Z,5.68
2022-12-28T12:42:31.169Z,6.25
2022-12-28T12:45:07.280Z,5.65
2022-12-28T12:48:17.419Z,4.95
2022-12-28T12:51:03.435Z,4.50
2022-12-28T12:53:48.653Z,4.20
2022-12-28T12:56:30.781Z,4.25
2022-12-28T12:59:26.861Z,5.60
2022-12-28T13:02:00.817Z,4.03
2022-12-28T13:04:33.251Z,4.22
2022-12-28T13:07:06.855Z,3.83
2022-12-28T13:09:37.565Z,6.07
2022-12-28T13:12:16.472Z,5.07
2022-12-28T13:14:47.028Z,3.65
2022-12-28T13:17:19.971Z,7.47
2022-12-28T13:19:48.879Z,5.00
2022-12-28T13:22:31.385Z,3.90
2022-12-28T13:25:00.049Z,4.60
2022-12-28T13:27:34.615Z,4.25
2022-12-28T13:30:03.742Z,5.22
2022-12-28T13:32:37.996Z,5.07
2022-12-28T13:35:19.582Z,4.60
2022-12-28T13:38:05.788Z,5.78
2022-12-28T13:40:35.320Z,3.63
2022-12-28T13:43:31.039Z,5.18
2022-12-28T13:46:08.090Z,4.50
2022-12-28T13:48:39.170Z,4.80
2022-12-28T13:51:11.856Z,5.50
2022-12-28T13:53:46.040Z,4.63
2022-12-28T13:56:17.757Z,4.20
2022-12-28T13:58:50.771Z,4.47
2022-12-28T14:01:22.607Z,5.43
2022-12-28T14:03:52.833Z,7.00
2022-12-28T14:06:23.521Z,4.78
2022-12-28T14:08:53.583Z,7.70
2022-12-28T14:11:22.749Z,4.03
2022-12-28T14:13:51.591Z,5.10
2022-12-28T14:16:20.649Z,6.43
2022-12-28T14:18:49.491Z,5.20
2022-12-28T14:21:17.976Z,5.07
2022-12-28T14:23:46.493Z,6.77
2022-12-28T14:26:23.430Z,4.80
2022-12-28T14:28:55.443Z,6.67
2022-12-28T14:31:28.169Z,5.83
2022-12-28T14:33:58.662Z,7.10
2022-12-28T14:36:30.563Z,8.13
2022-12-28T14:39:05.037Z,7.80
2022-12-28T14:41:40.682Z,11.93
2022-12-28T14:44:17.742Z,10.93
2022-12-28T14:46:46.446Z,9.10
2022-12-28T14:49:37.807Z,9.90
2022-12-28T14:52:37.998Z,9.93
2022-12-28T14:55:32.418Z,9.00
2022-12-28T14:58:06.119Z,11.50
2022-12-28T15:00:36.829Z,11.43
2022-12-28T15:03:20.193Z,12.67
2022-12-28T15:05:51.525Z,19.43
2022-12-28T15:08:20.351Z,16.73
2022-12-28T15:10:51.832Z,18.40
2022-12-28T15:13:24.913Z,16.93
2022-12-28T15:15:58.169Z,17.33
2022-12-28T15:18:27.346Z,17.70
2022-12-28T15:20:55.890Z,20.30
2022-12-28T15:23:24.514Z,23.37
2022-12-28T15:25:53.095Z,24.13
2022-12-28T15:28:25.543Z,18.93
2022-12-28T15:30:54.466Z,19.80
2022-12-28T15:33:22.959Z,18.67
2022-12-28T15:35:51.509Z,19.87
2022-12-28T15:38:20.009Z,18.53
2022-12-28T15:40:48.544Z,20.70
2022-12-28T15:43:17.084Z,20.30
2022-12-28T15:45:54.381Z,19.67
2022-12-28T15:48:22.943Z,14.07
2022-12-28T15:50:51.757Z,15.87
2022-12-28T15:53:20.270Z,15.13
2022-12-28T15:56:00.420Z,14.20
2022-12-28T15:58:29.371Z,13.23
2022-12-28T16:00:59.434Z,12.47
2022-12-28T16:03:35.688Z,14.87
2022-12-28T16:06:05.821Z,16.00
2022-12-28T16:08:34.412Z,13.90
2022-12-28T16:11:09.445Z,14.77
2022-12-28T16:13:37.952Z,17.67
2022-12-28T16:16:09.565Z,14.90
2022-12-28T16:18:38.383Z,18.40
2022-12-28T16:21:10.261Z,24.87
2022-12-28T16:23:40.788Z,21.17
2022-12-28T16:26:11.590Z,27.67
2022-12-28T16:28:40.405Z,22.50
2022-12-28T16:31:22.320Z,19.77
2022-12-28T16:33:54.135Z,20.33
2022-12-28T16:36:23.061Z,20.93
2022-12-28T16:38:51.788Z,29.23
2022-12-28T16:41:20.473Z,30.17
2022-12-28T16:43:49.875Z,24.13
2022-12-28T16:46:22.813Z,25.17
2022-12-28T16:48:51.465Z,28.70
2022-12-28T16:51:19.986Z,34.37
2022-12-28T16:53:48.520Z,32.23
2022-12-28T16:56:17.119Z,28.27
2022-12-28T16:58:49.081Z,33.03
2022-12-28T17:01:19.549Z,33.97
2022-12-28T17:03:48.153Z,32.83
2022-12-28T17:06:17.596Z,31.73
2022-12-28T17:08:48.362Z,32.43
2022-12-28T17:11:16.931Z,42.37
2022-12-28T17:13:45.463Z,40.90
2022-12-28T17:16:14.012Z,31.90
2022-12-28T17:18:44.057Z,39.87
2022-12-28T17:21:12.632Z,40.10
2022-12-28T17:23:41.197Z,39.60
2022-12-28T17:26:10.057Z,34.63
2022-12-28T17:28:38.581Z,38.23
2022-12-28T17:31:09.904Z,40.60
2022-12-28T17:33:39.998Z,36.37
2022-12-28T17:36:10.928Z,38.93
2022-12-28T17:38:39.469Z,42.17
2022-12-28T17:41:10.047Z,50.30
2022-12-28T17:43:38.779Z,50.27
2022-12-28T17:46:07.745Z,58.00
2022-12-28T17:48:36.291Z,64.43
2022-12-28T17:51:11.046Z,62.93
2022-12-28T17:53:41.872Z,67.70
2022-12-28T17:56:13.494Z,64.27
2022-12-28T17:58:43.230Z,81.17
2022-12-28T18:01:13.086Z,70.57
2022-12-28T18:03:42.211Z,66.93
2022-12-28T18:06:10.792Z,63.37
2022-12-28T18:08:40.750Z,58.07
2022-12-28T18:11:11.337Z,60.40
2022-12-28T18:13:40.476Z,53.03
2022-12-28T18:16:11.623Z,53.83
2022-12-28T18:18:40.180Z,52.87
2022-12-28T18:21:10.230Z,51.73
2022-12-28T18:23:40.340Z,40.07
2022-12-28T18:26:11.803Z,41.13
2022-12-28T18:28:40.300Z,38.63
2022-12-28T18:31:09.294Z,44.70
2022-12-28T18:33:38.161Z,47.43
2022-12-28T18:36:16.854Z,48.57
2022-12-28T18:38:48.721Z,48.53
2022-12-28T18:41:20.921Z,42.60
2022-12-28T18:43:49.620Z,47.00
2022-12-28T18:46:18.507Z,43.47
2022-12-28T18:48:47.083Z,43.50
2022-12-28T18:51:18.529Z,42.07
2022-12-28T18:53:50.374Z,36.67
2022-12-28T18:56:20.506Z,38.87
2022-12-28T18:58:53.368Z,39.73
2022-12-28T19:04:13.122Z,39.80
2022-12-28T19:06:42.605Z,39.93
2022-12-28T19:09:13.434Z,42.43
2022-12-28T19:11:42.206Z,45.23
2022-12-28T19:14:14.077Z,51.83
2022-12-28T19:16:45.279Z,45.90
2022-12-28T19:19:17.021Z,47.43
2022-12-28T19:21:45.969Z,51.97
2022-12-28T19:24:17.639Z,56.60
2022-12-28T19:26:46.986Z,48.93
2022-12-28T19:29:16.852Z,56.37
2022-12-28T19:31:45.442Z,49.27
2022-12-28T19:34:14.411Z,43.10
2022-12-28T19:36:42.981Z,47.70
2022-12-28T19:39:13.140Z,43.97
2022-12-28T19:41:43.103Z,46.77
2022-12-28T19:44:11.677Z,62.40
2022-12-28T19:46:40.311Z,59.03
2022-12-28T19:49:08.927Z,49.53
2022-12-28T19:51:37.428Z,47.83
2022-12-28T19:54:06.157Z,43.20
2022-12-28T19:56:35.081Z,44.87
2022-12-28T19:59:07.024Z,47.67
2022-12-28T20:01:37.394Z,46.10
2022-12-28T20:04:12.824Z,52.70
2022-12-28T20:06:43.199Z,47.80
2022-12-28T20:09:12.781Z,45.33
2022-12-28T20:11:41.914Z,49.40
2022-12-28T20:14:15.849Z,49.50
2022-12-28T20:16:51.944Z,48.00
2022-12-28T20:19:20.532Z,46.90
2022-12-28T20:21:49.615Z,53.93
2022-12-28T20:24:21.674Z,60.13
2022-12-28T20:26:50.373Z,60.43
2022-12-28T20:29:20.909Z,78.93
2022-12-28T20:31:51.812Z,67.03
2022-12-28T20:34:20.518Z,56.10
2022-12-28T20:36:49.629Z,52.40
2022-12-28T20:39:18.221Z,52.77
2022-12-28T20:42:03.958Z,51.50
2022-12-28T20:44:35.531Z,49.10
2022-12-28T20:47:04.315Z,45.13
2022-12-28T20:49:33.240Z,43.73
2022-12-28T20:52:01.857Z,41.30
2022-12-28T20:54:30.397Z,42.47
2022-12-28T20:56:58.976Z,44.77
2022-12-28T20:59:27.678Z,41.47
2022-12-28T21:01:57.887Z,38.17
2022-12-28T21:04:26.781Z,37.43
2022-12-28T21:06:56.122Z,39.43
2022-12-28T21:09:24.688Z,35.90
2022-12-28T21:11:53.514Z,37.07
2022-12-28T21:14:22.277Z,35.83
2022-12-28T21:16:51.001Z,34.10
2022-12-28T21:19:22.694Z,35.30
2022-12-28T21:21:51.336Z,34.27
2022-12-28T21:24:19.891Z,34.50
2022-12-28T21:26:48.408Z,35.33
2022-12-28T21:29:24.000Z,29.67
2022-12-28T21:31:54.607Z,31.60
2022-12-28T21:34:27.931Z,35.50
2022-12-28T21:36:57.207Z,33.40
2022-12-28T21:39:25.781Z,31.13
2022-12-28T21:41:54.726Z,32.23
2022-12-28T21:44:25.607Z,33.53
2022-12-28T21:46:55.226Z,32.00
2022-12-28T21:49:25.280Z,30.60
2022-12-28T21:51:59.484Z,29.23
2022-12-28T21:54:28.128Z,31.23
2022-12-28T21:56:57.947Z,28.97
2022-12-28T21:59:27.271Z,29.07
2022-12-28T22:02:13.331Z,29.30
2022-12-28T22:05:16.071Z,28.33
2022-12-28T22:07:44.668Z,27.20
2022-12-28T22:10:30.829Z,27.53
2022-12-28T22:13:00.807Z,26.60
2022-12-28T22:15:46.486Z,28.33
2022-12-28T22:21:10.610Z,30.43
2022-12-28T22:23:39.176Z,32.60
2022-12-28T22:26:07.960Z,31.00
2022-12-28T22:28:36.644Z,34.70
2022-12-28T22:31:06.018Z,28.70
2022-12-28T22:33:34.726Z,29.23
2022-12-28T22:36:12.250Z,27.00
2022-12-28T22:38:40.817Z,27.50
2022-12-28T22:41:09.452Z,27.57
2022-12-28T22:43:38.725Z,26.53
2022-12-28T22:46:08.923Z,24.73
2022-12-28T22:48:38.018Z,23.10
2022-12-28T22:51:08.463Z,31.60
2022-12-28T22:53:39.000Z,27.37
2022-12-28T22:56:10.746Z,24.43
2022-12-28T22:58:39.655Z,24.57
2022-12-28T23:01:10.074Z,25.87
2022-12-28T23:03:39.017Z,26.20
2022-12-28T23:06:08.911Z,24.17
2022-12-28T23:08:39.045Z,21.50
2022-12-28T23:11:36.552Z,23.23
2022-12-28T23:14:27.511Z,21.77
2022-12-28T23:16:56.531Z,21.47
2022-12-28T23:19:42.907Z,21.00
2022-12-28T23:22:32.762Z,21.73
2022-12-28T23:25:20.395Z,22.97
2022-12-28T23:27:49.599Z,24.03
2022-12-28T23:30:20.521Z,24.17
2022-12-28T23:32:50.664Z,22.87
2022-12-28T23:35:20.536Z,22.40
2022-12-28T23:37:49.090Z,22.17
2022-12-28T23:40:20.757Z,20.17
2022-12-28T23:42:49.575Z,19.77
2022-12-28T23:45:20.054Z,18.37
2022-12-28T23:47:49.057Z,17.77
2022-12-28T23:50:18.125Z,16.87
2022-12-28T23:52:46.725Z,15.87
2022-12-28T23:55:15.537Z,15.30
2022-12-28T23:57:45.427Z,16.23
